sensor_id;sensor_type;location;lat;lon;timestamp;pressure;altitude;pressure_sealevel;temperature;humidity
19783;BME280;10051;40.294;-3.754;2023-04-03T00:01:28;94710.69;;;11.94;34.19
19783;BME280;10051;40.294;-3.754;2023-04-03T00:03:53;94727.34;;;11.84;34.75
19783;BME280;10051;40.294;-3.754;2023-04-03T00:06:20;94672.66;;;11.66;34.71
19783;BME280;10051;40.294;-3.754;2023-04-03T00:08:45;94705.50;;;11.79;34.74
19783;BME280;10051;40.294;-3.754;2023-04-03T00:11:11;94718.44;;;11.75;34.99
19783;BME280;10051;40.294;-3.754;2023-04-03T00:13:37;94701.63;;;11.66;34.69
19783;BME280;10051;40.294;-3.754;2023-04-03T00:16:03;94673.22;;;11.57;34.46
19783;BME280;10051;40.294;-3.754;2023-04-03T00:18:29;94664.91;;;11.29;34.83
19783;BME280;10051;40.294;-3.754;2023-04-03T00:20:55;94712.63;;;11.73;34.94
19783;BME280;10051;40.294;-3.754;2023-04-03T00:23:20;94678.72;;;11.61;34.92
19783;BME280;10051;40.294;-3.754;2023-04-03T00:25:46;94666.38;;;11.56;34.45
19783;BME280;10051;40.294;-3.754;2023-04-03T00:28:12;94698.09;;;11.86;34.49
19783;BME280;10051;40.294;-3.754;2023-04-03T00:30:37;94670.59;;;11.57;35.13
19783;BME280;10051;40.294;-3.754;2023-04-03T00:33:03;94688.94;;;11.73;34.69
19783;BME280;10051;40.294;-3.754;2023-04-03T00:35:28;94687.09;;;11.73;35.03
19783;BME280;10051;40.294;-3.754;2023-04-03T00:37:55;94683.44;;;11.64;35.03
19783;BME280;10051;40.294;-3.754;2023-04-03T00:40:23;94675.88;;;11.57;35.44
19783;BME280;10051;40.294;-3.754;2023-04-03T00:42:55;94657.03;;;11.29;36.21
19783;BME280;10051;40.294;-3.754;2023-04-03T00:45:37;94673.47;;;11.61;35.34
19783;BME280;10051;40.294;-3.754;2023-04-03T00:48:05;94672.13;;;11.69;35.46
19783;BME280;10051;40.294;-3.754;2023-04-03T00:50:35;94657.72;;;11.51;35.94
19783;BME280;10051;40.294;-3.754;2023-04-03T00:53:03;94655.59;;;11.53;35.67
19783;BME280;10051;40.294;-3.754;2023-04-03T00:55:30;94647.66;;;11.58;35.70
19783;BME280;10051;40.294;-3.754;2023-04-03T00:57:57;94645.09;;;11.48;35.92
19783;BME280;10051;40.294;-3.754;2023-04-03T01:00:23;94662.78;;;11.37;35.95
19783;BME280;10051;40.294;-3.754;2023-04-03T01:02:50;94662.28;;;11.29;36.13
19783;BME280;10051;40.294;-3.754;2023-04-03T01:05:17;94662.28;;;11.29;36.38
19783;BME280;10051;40.294;-3.754;2023-04-03T01:07:45;94636.09;;;10.98;37.02
19783;BME280;10051;40.294;-3.754;2023-04-03T01:10:13;94645.75;;;11.19;36.69
19783;BME280;10051;40.294;-3.754;2023-04-03T01:12:42;94612.19;;;10.90;36.59
19783;BME280;10051;40.294;-3.754;2023-04-03T01:15:11;94647.66;;;11.08;36.94
19783;BME280;10051;40.294;-3.754;2023-04-03T01:17:50;94649.78;;;10.95;37.28
19783;BME280;10051;40.294;-3.754;2023-04-03T01:25:40;94647.25;;;10.69;37.71
19783;BME280;10051;40.294;-3.754;2023-04-03T01:28:09;94641.47;;;10.57;38.76
19783;BME280;10051;40.294;-3.754;2023-04-03T01:30:42;94638.59;;;10.53;38.43
19783;BME280;10051;40.294;-3.754;2023-04-03T01:33:09;94624.41;;;10.49;38.31
19783;BME280;10051;40.294;-3.754;2023-04-03T01:35:35;94640.41;;;10.63;38.21
19783;BME280;10051;40.294;-3.754;2023-04-03T01:38:00;94591.53;;;10.41;37.93
19783;BME280;10051;40.294;-3.754;2023-04-03T01:40:26;94626.75;;;10.56;38.22
19783;BME280;10051;40.294;-3.754;2023-04-03T01:42:51;94619.41;;;10.48;38.90
19783;BME280;10051;40.294;-3.754;2023-04-03T01:45:17;94642.53;;;10.46;39.28
19783;BME280;10051;40.294;-3.754;2023-04-03T01:47:43;94640.69;;;10.36;39.05
19783;BME280;10051;40.294;-3.754;2023-04-03T01:50:08;94636.22;;;10.36;39.04
19783;BME280;10051;40.294;-3.754;2023-04-03T01:52:34;94586.31;;;10.05;39.06
19783;BME280;10051;40.294;-3.754;2023-04-03T01:54:59;94637.03;;;10.47;39.36
19783;BME280;10051;40.294;-3.754;2023-04-03T01:57:25;94618.09;;;10.50;39.32
19783;BME280;10051;40.294;-3.754;2023-04-03T01:59:50;94607.84;;;10.28;39.15
19783;BME280;10051;40.294;-3.754;2023-04-03T02:02:16;94621.00;;;10.33;39.26
19783;BME280;10051;40.294;-3.754;2023-04-03T02:04:42;94571.59;;;9.99;39.11
19783;BME280;10051;40.294;-3.754;2023-04-03T02:07:07;94624.41;;;10.34;39.19
19783;BME280;10051;40.294;-3.754;2023-04-03T02:09:33;94620.47;;;10.31;39.50
19783;BME280;10051;40.294;-3.754;2023-04-03T02:11:58;94619.91;;;10.50;39.59
19783;BME280;10051;40.294;-3.754;2023-04-03T02:14:24;94601.78;;;10.48;39.27
19783;BME280;10051;40.294;-3.754;2023-04-03T02:16:50;94613.38;;;10.42;39.31
19783;BME280;10051;40.294;-3.754;2023-04-03T02:19:15;94604.38;;;10.64;39.03
19783;BME280;10051;40.294;-3.754;2023-04-03T02:21:41;94591.81;;;10.40;39.60
19783;BME280;10051;40.294;-3.754;2023-04-03T02:24:07;94578.94;;;10.23;39.36
19783;BME280;10051;40.294;-3.754;2023-04-03T02:26:32;94598.13;;;10.18;39.65
19783;BME280;10051;40.294;-3.754;2023-04-03T02:28:58;94595.25;;;10.20;40.13
19783;BME280;10051;40.294;-3.754;2023-04-03T02:31:24;94580.75;;;10.27;40.16
19783;BME280;10051;40.294;-3.754;2023-04-03T02:33:50;94547.94;;;10.09;39.84
19783;BME280;10051;40.294;-3.754;2023-04-03T02:36:16;94542.44;;;10.06;39.55
19783;BME280;10051;40.294;-3.754;2023-04-03T02:38:41;94589.41;;;10.54;39.39
19783;BME280;10051;40.294;-3.754;2023-04-03T02:41:09;94582.53;;;10.68;39.26
19783;BME280;10051;40.294;-3.754;2023-04-03T02:43:35;94575.75;;;10.52;39.02
19783;BME280;10051;40.294;-3.754;2023-04-03T02:46:01;94572.59;;;10.50;38.88
19783;BME280;10051;40.294;-3.754;2023-04-03T02:48:27;94585.19;;;10.68;38.72
19783;BME280;10051;40.294;-3.754;2023-04-03T02:50:52;94562.56;;;10.67;38.69
19783;BME280;10051;40.294;-3.754;2023-04-03T02:53:18;94581.72;;;10.73;39.13
19783;BME280;10051;40.294;-3.754;2023-04-03T02:55:44;94541.84;;;10.35;39.10
19783;BME280;10051;40.294;-3.754;2023-04-03T02:58:10;94573.13;;;10.52;39.45
19783;BME280;10051;40.294;-3.754;2023-04-03T03:00:36;94577.59;;;10.51;39.60
19783;BME280;10051;40.294;-3.754;2023-04-03T03:03:02;94558.94;;;10.37;40.26
19783;BME280;10051;40.294;-3.754;2023-04-03T03:05:28;94502.50;;;10.04;40.52
19783;BME280;10051;40.294;-3.754;2023-04-03T03:07:54;94545.56;;;10.39;39.60
19783;BME280;10051;40.294;-3.754;2023-04-03T03:10:20;94545.25;;;10.51;39.94
19783;BME280;10051;40.294;-3.754;2023-04-03T03:12:45;94527.91;;;10.45;39.76
19783;BME280;10051;40.294;-3.754;2023-04-03T03:15:11;94549.72;;;10.50;39.94
19783;BME280;10051;40.294;-3.754;2023-04-03T03:17:37;94568.88;;;10.66;39.38
19783;BME280;10051;40.294;-3.754;2023-04-03T03:20:04;94557.56;;;10.61;39.73
19783;BME280;10051;40.294;-3.754;2023-04-03T03:22:30;94535.25;;;10.53;39.76
19783;BME280;10051;40.294;-3.754;2023-04-03T03:24:55;94523.22;;;10.21;40.71
19783;BME280;10051;40.294;-3.754;2023-04-03T03:27:21;94491.78;;;9.90;40.61
19783;BME280;10051;40.294;-3.754;2023-04-03T03:29:47;94540.53;;;10.48;40.23
19783;BME280;10051;40.294;-3.754;2023-04-03T03:32:12;94528.25;;;10.07;41.00
19783;BME280;10051;40.294;-3.754;2023-04-03T03:34:38;94541.13;;;10.08;41.05
19783;BME280;10051;40.294;-3.754;2023-04-03T03:37:04;94535.84;;;10.19;40.80
19783;BME280;10051;40.294;-3.754;2023-04-03T03:39:30;94498.63;;;9.60;41.27
19783;BME280;10051;40.294;-3.754;2023-04-03T03:41:55;94519.63;;;9.49;42.08
19783;BME280;10051;40.294;-3.754;2023-04-03T03:44:21;94517.00;;;9.29;42.07
19783;BME280;10051;40.294;-3.754;2023-04-03T03:46:47;94538.53;;;9.36;42.17
19783;BME280;10051;40.294;-3.754;2023-04-03T03:49:12;94492.00;;;8.85;42.62
19783;BME280;10051;40.294;-3.754;2023-04-03T03:51:39;94526.38;;;8.88;43.67
19783;BME280;10051;40.294;-3.754;2023-04-03T03:54:05;94486.97;;;8.73;43.41
19783;BME280;10051;40.294;-3.754;2023-04-03T03:56:31;94455.78;;;8.66;43.23
19783;BME280;10051;40.294;-3.754;2023-04-03T03:58:56;94528.50;;;8.97;43.94
19783;BME280;10051;40.294;-3.754;2023-04-03T04:01:23;94506.44;;;8.92;43.64
19783;BME280;10051;40.294;-3.754;2023-04-03T04:03:48;94513.00;;;8.95;43.42
19783;BME280;10051;40.294;-3.754;2023-04-03T04:06:14;94496.22;;;9.01;43.36
19783;BME280;10051;40.294;-3.754;2023-04-03T04:08:40;94492.53;;;8.92;43.17
19783;BME280;10051;40.294;-3.754;2023-04-03T04:11:06;94509.06;;;8.92;43.59
19783;BME280;10051;40.294;-3.754;2023-04-03T04:13:32;94488.56;;;8.74;43.79
19783;BME280;10051;40.294;-3.754;2023-04-03T04:15:57;94508.28;;;8.97;43.67
19783;BME280;10051;40.294;-3.754;2023-04-03T04:18:23;94501.75;;;9.05;43.44
19783;BME280;10051;40.294;-3.754;2023-04-03T04:20:49;94508.03;;;8.93;43.94
19783;BME280;10051;40.294;-3.754;2023-04-03T04:23:16;94492.28;;;8.88;43.85
19783;BME280;10051;40.294;-3.754;2023-04-03T04:25:44;94480.75;;;8.89;43.37
19783;BME280;10051;40.294;-3.754;2023-04-03T04:28:11;94502.50;;;8.90;43.92
19783;BME280;10051;40.294;-3.754;2023-04-03T04:30:36;94480.19;;;8.82;43.52
19783;BME280;10051;40.294;-3.754;2023-04-03T04:33:02;94483.88;;;8.86;43.05
19783;BME280;10051;40.294;-3.754;2023-04-03T04:35:28;94504.59;;;8.88;43.52
19783;BME280;10051;40.294;-3.754;2023-04-03T04:37:53;94505.34;;;8.78;43.98
19783;BME280;10051;40.294;-3.754;2023-04-03T04:40:19;94510.34;;;8.85;43.48
19783;BME280;10051;40.294;-3.754;2023-04-03T04:42:45;94494.31;;;8.60;44.24
19783;BME280;10051;40.294;-3.754;2023-04-03T04:45:10;94489.38;;;8.80;43.45
19783;BME280;10051;40.294;-3.754;2023-04-03T04:47:36;94486.44;;;8.60;43.90
19783;BME280;10051;40.294;-3.754;2023-04-03T04:50:01;94468.25;;;8.43;43.68
19783;BME280;10051;40.294;-3.754;2023-04-03T04:52:27;94487.00;;;8.78;43.30
19783;BME280;10051;40.294;-3.754;2023-04-03T04:54:52;94497.75;;;8.87;42.97
19783;BME280;10051;40.294;-3.754;2023-04-03T04:57:18;94477.22;;;8.53;43.35
19783;BME280;10051;40.294;-3.754;2023-04-03T04:59:43;94501.63;;;8.58;43.31
19783;BME280;10051;40.294;-3.754;2023-04-03T05:02:09;94476.78;;;8.18;44.33
19783;BME280;10051;40.294;-3.754;2023-04-03T05:04:35;94472.09;;;8.15;44.37
19783;BME280;10051;40.294;-3.754;2023-04-03T05:07:00;94501.69;;;8.15;44.74
19783;BME280;10051;40.294;-3.754;2023-04-03T05:09:26;94480.44;;;8.17;44.39
19783;BME280;10051;40.294;-3.754;2023-04-03T05:11:51;94470.28;;;8.21;44.14
19783;BME280;10051;40.294;-3.754;2023-04-03T05:14:17;94403.28;;;7.82;43.93
19783;BME280;10051;40.294;-3.754;2023-04-03T05:16:43;94495.59;;;8.58;43.80
19783;BME280;10051;40.294;-3.754;2023-04-03T05:19:08;94474.91;;;8.67;43.99
19783;BME280;10051;40.294;-3.754;2023-04-03T05:21:33;94436.78;;;8.43;44.10
19783;BME280;10051;40.294;-3.754;2023-04-03T05:24:00;94485.91;;;8.58;44.54
19783;BME280;10051;40.294;-3.754;2023-04-03T05:26:31;94437.75;;;8.16;44.50
19783;BME280;10051;40.294;-3.754;2023-04-03T05:28:57;94485.38;;;8.56;44.45
19783;BME280;10051;40.294;-3.754;2023-04-03T05:31:22;94475.56;;;8.41;44.52
19783;BME280;10051;40.294;-3.754;2023-04-03T05:33:48;94472.19;;;8.41;44.48
19783;BME280;10051;40.294;-3.754;2023-04-03T05:36:14;94459.09;;;8.46;43.93
19783;BME280;10051;40.294;-3.754;2023-04-03T05:38:40;94475.66;;;8.52;44.12
19783;BME280;10051;40.294;-3.754;2023-04-03T05:41:06;94463.88;;;8.65;43.54
19783;BME280;10051;40.294;-3.754;2023-04-03T05:43:31;94450.66;;;8.33;43.99
19783;BME280;10051;40.294;-3.754;2023-04-03T05:45:58;94471.66;;;8.39;43.54
19783;BME280;10051;40.294;-3.754;2023-04-03T05:48:24;94473.72;;;8.37;43.74
19783;BME280;10051;40.294;-3.754;2023-04-03T05:50:50;94437.22;;;8.14;43.98
19783;BME280;10051;40.294;-3.754;2023-04-03T05:53:20;94445.84;;;8.04;44.23
19783;BME280;10051;40.294;-3.754;2023-04-03T05:55:47;94430.31;;;7.87;44.22
19783;BME280;10051;40.294;-3.754;2023-04-03T05:58:13;94423.75;;;7.90;43.83
19783;BME280;10051;40.294;-3.754;2023-04-03T06:00:38;94463.25;;;8.37;43.85
19783;BME280;10051;40.294;-3.754;2023-04-03T06:03:04;94480.13;;;8.56;43.79
19783;BME280;10051;40.294;-3.754;2023-04-03T06:05:30;94481.69;;;8.52;43.65
19783;BME280;10051;40.294;-3.754;2023-04-03T06:07:56;94429.63;;;8.13;43.95
19783;BME280;10051;40.294;-3.754;2023-04-03T06:10:22;94444.22;;;7.93;44.28
19783;BME280;10051;40.294;-3.754;2023-04-03T06:12:48;94471.50;;;8.02;44.96
19783;BME280;10051;40.294;-3.754;2023-04-03T06:15:13;94465.19;;;7.98;45.42
19783;BME280;10051;40.294;-3.754;2023-04-03T06:17:40;94436.75;;;7.69;45.69
19783;BME280;10051;40.294;-3.754;2023-04-03T06:20:06;94478.25;;;7.93;46.17
19783;BME280;10051;40.294;-3.754;2023-04-03T06:22:31;94488.66;;;7.83;46.21
19783;BME280;10051;40.294;-3.754;2023-04-03T06:24:57;94448.44;;;7.56;46.38
19783;BME280;10051;40.294;-3.754;2023-04-03T06:27:22;94490.03;;;7.96;46.05
19783;BME280;10051;40.294;-3.754;2023-04-03T06:29:48;94458.81;;;7.41;46.99
19783;BME280;10051;40.294;-3.754;2023-04-03T06:32:15;94492.91;;;7.94;46.15
19783;BME280;10051;40.294;-3.754;2023-04-03T06:34:41;94493.72;;;7.95;46.15
19783;BME280;10051;40.294;-3.754;2023-04-03T06:37:20;94492.00;;;8.21;45.47
19783;BME280;10051;40.294;-3.754;2023-04-03T06:39:46;94455.31;;;8.16;44.97
19783;BME280;10051;40.294;-3.754;2023-04-03T06:42:11;94493.81;;;8.79;44.05
19783;BME280;10051;40.294;-3.754;2023-04-03T06:44:37;94484.19;;;9.11;43.10
19783;BME280;10051;40.294;-3.754;2023-04-03T06:47:03;94461.34;;;9.01;42.87
19783;BME280;10051;40.294;-3.754;2023-04-03T06:49:28;94467.66;;;9.20;42.77
19783;BME280;10051;40.294;-3.754;2023-04-03T06:51:55;94463.69;;;9.75;41.64
19783;BME280;10051;40.294;-3.754;2023-04-03T06:54:22;94488.25;;;10.20;40.50
19783;BME280;10051;40.294;-3.754;2023-04-03T06:56:48;94485.72;;;9.84;41.13
19783;BME280;10051;40.294;-3.754;2023-04-03T06:59:14;94498.22;;;10.34;40.91
19783;BME280;10051;40.294;-3.754;2023-04-03T07:01:40;94486.91;;;10.44;40.11
19783;BME280;10051;40.294;-3.754;2023-04-03T07:04:06;94451.91;;;10.53;39.95
19783;BME280;10051;40.294;-3.754;2023-04-03T07:06:32;94492.16;;;10.38;39.94
19783;BME280;10051;40.294;-3.754;2023-04-03T07:08:59;94483.75;;;10.47;40.08
19783;BME280;10051;40.294;-3.754;2023-04-03T07:11:24;94494.94;;;9.92;41.02
19783;BME280;10051;40.294;-3.754;2023-04-03T07:13:51;94492.47;;;10.26;40.34
19783;BME280;10051;40.294;-3.754;2023-04-03T07:16:17;94470.69;;;10.21;39.81
19783;BME280;10051;40.294;-3.754;2023-04-03T07:18:44;94460.69;;;10.23;39.35
19783;BME280;10051;40.294;-3.754;2023-04-03T07:21:10;94459.63;;;10.19;39.20
19783;BME280;10051;40.294;-3.754;2023-04-03T07:23:36;94469.66;;;10.06;39.26
19783;BME280;10051;40.294;-3.754;2023-04-03T07:26:02;94467.00;;;10.22;39.00
19783;BME280;10051;40.294;-3.754;2023-04-03T07:28:27;94483.75;;;10.41;39.75
19783;BME280;10051;40.294;-3.754;2023-04-03T07:31:00;94470.22;;;10.69;39.59
19783;BME280;10051;40.294;-3.754;2023-04-03T07:33:26;94471.47;;;10.82;38.28
19783;BME280;10051;40.294;-3.754;2023-04-03T07:35:55;94483.72;;;11.42;37.73
19783;BME280;10051;40.294;-3.754;2023-04-03T07:38:21;94465.81;;;11.73;36.70
19783;BME280;10051;40.294;-3.754;2023-04-03T07:40:48;94485.03;;;12.03;36.02
19783;BME280;10051;40.294;-3.754;2023-04-03T07:43:18;94478.56;;;12.20;35.58
19783;BME280;10051;40.294;-3.754;2023-04-03T07:45:45;94485.13;;;12.66;34.50
19783;BME280;10051;40.294;-3.754;2023-04-03T07:48:15;94488.44;;;12.96;34.05
19783;BME280;10051;40.294;-3.754;2023-04-03T07:50:43;94488.22;;;12.92;33.50
19783;BME280;10051;40.294;-3.754;2023-04-03T07:53:08;94467.41;;;12.72;34.40
19783;BME280;10051;40.294;-3.754;2023-04-03T07:55:34;94456.50;;;12.35;34.37
19783;BME280;10051;40.294;-3.754;2023-04-03T07:58:02;94473.50;;;12.24;34.08
19783;BME280;10051;40.294;-3.754;2023-04-03T08:00:28;94486.56;;;11.80;35.38
19783;BME280;10051;40.294;-3.754;2023-04-03T08:02:54;94482.13;;;11.75;35.86
19783;BME280;10051;40.294;-3.754;2023-04-03T08:05:21;94483.69;;;11.77;34.88
19783;BME280;10051;40.294;-3.754;2023-04-03T08:07:47;94469.91;;;11.55;35.65
19783;BME280;10051;40.294;-3.754;2023-04-03T08:10:13;94478.88;;;11.54;35.97
19783;BME280;10051;40.294;-3.754;2023-04-03T08:12:39;94472.28;;;11.22;36.25
19783;BME280;10051;40.294;-3.754;2023-04-03T08:15:06;94470.88;;;11.35;36.29
19783;BME280;10051;40.294;-3.754;2023-04-03T08:17:33;94454.94;;;11.80;35.32
19783;BME280;10051;40.294;-3.754;2023-04-03T08:20:06;94459.50;;;11.99;34.90
19783;BME280;10051;40.294;-3.754;2023-04-03T08:22:32;94453.75;;;12.45;34.27
19783;BME280;10051;40.294;-3.754;2023-04-03T08:24:58;94464.78;;;12.91;34.42
19783;BME280;10051;40.294;-3.754;2023-04-03T08:27:25;94466.59;;;13.09;33.81
19783;BME280;10051;40.294;-3.754;2023-04-03T08:29:51;94458.75;;;13.43;32.80
19783;BME280;10051;40.294;-3.754;2023-04-03T08:32:17;94447.75;;;13.68;32.42
19783;BME280;10051;40.294;-3.754;2023-04-03T08:34:43;94463.16;;;13.94;31.65
19783;BME280;10051;40.294;-3.754;2023-04-03T08:37:09;94432.72;;;14.11;31.46
19783;BME280;10051;40.294;-3.754;2023-04-03T08:39:34;94438.59;;;14.36;31.50
19783;BME280;10051;40.294;-3.754;2023-04-03T08:42:05;94409.69;;;13.97;31.90
19783;BME280;10051;40.294;-3.754;2023-04-03T08:47:28;94448.66;;;13.78;31.49
19783;BME280;10051;40.294;-3.754;2023-04-03T08:50:13;94437.53;;;13.95;31.89
19783;BME280;10051;40.294;-3.754;2023-04-03T08:52:51;94449.44;;;13.78;31.77
19783;BME280;10051;40.294;-3.754;2023-04-03T08:58:05;94421.47;;;14.19;31.87
19783;BME280;10051;40.294;-3.754;2023-04-03T09:00:41;94414.59;;;14.32;31.17
19783;BME280;10051;40.294;-3.754;2023-04-03T09:03:13;94425.19;;;14.04;30.81
19783;BME280;10051;40.294;-3.754;2023-04-03T09:08:27;94435.28;;;14.16;31.77
19783;BME280;10051;40.294;-3.754;2023-04-03T09:13:52;94443.78;;;14.55;30.48
19783;BME280;10051;40.294;-3.754;2023-04-03T09:18:59;94432.00;;;14.61;30.67
19783;BME280;10051;40.294;-3.754;2023-04-03T09:21:32;94424.31;;;14.87;30.87
19783;BME280;10051;40.294;-3.754;2023-04-03T09:24:01;94395.88;;;14.93;29.66
19783;BME280;10051;40.294;-3.754;2023-04-03T09:26:34;94410.59;;;14.85;29.91
19783;BME280;10051;40.294;-3.754;2023-04-03T09:29:06;94432.47;;;15.14;29.96
19783;BME280;10051;40.294;-3.754;2023-04-03T09:31:38;94429.53;;;15.15;30.46
19783;BME280;10051;40.294;-3.754;2023-04-03T09:34:30;94440.16;;;15.47;30.04
19783;BME280;10051;40.294;-3.754;2023-04-03T09:36:56;94425.66;;;15.67;29.07
19783;BME280;10051;40.294;-3.754;2023-04-03T09:39:28;94403.63;;;15.35;29.73
19783;BME280;10051;40.294;-3.754;2023-04-03T09:41:57;94407.59;;;15.46;30.69
19783;BME280;10051;40.294;-3.754;2023-04-03T09:44:35;94386.56;;;15.50;28.94
19783;BME280;10051;40.294;-3.754;2023-04-03T09:47:23;94422.53;;;15.42;28.84
19783;BME280;10051;40.294;-3.754;2023-04-03T09:49:49;94390.56;;;15.39;29.49
19783;BME280;10051;40.294;-3.754;2023-04-03T09:52:22;94423.13;;;15.62;29.20
19783;BME280;10051;40.294;-3.754;2023-04-03T09:54:49;94410.50;;;15.68;29.31
19783;BME280;10051;40.294;-3.754;2023-04-03T09:57:15;94403.81;;;15.70;28.82
19783;BME280;10051;40.294;-3.754;2023-04-03T09:59:45;94399.59;;;16.01;29.33
19783;BME280;10051;40.294;-3.754;2023-04-03T10:04:40;94379.69;;;16.21;29.73
19783;BME280;10051;40.294;-3.754;2023-04-03T10:07:33;94388.19;;;16.49;29.40
19783;BME280;10051;40.294;-3.754;2023-04-03T10:10:14;94345.88;;;16.53;28.93
19783;BME280;10051;40.294;-3.754;2023-04-03T10:12:41;94382.44;;;17.00;28.86
19783;BME280;10051;40.294;-3.754;2023-04-03T10:15:13;94348.84;;;16.95;28.90
19783;BME280;10051;40.294;-3.754;2023-04-03T10:18:00;94373.06;;;16.94;28.18
19783;BME280;10051;40.294;-3.754;2023-04-03T10:20:40;94377.91;;;17.01;28.29
19783;BME280;10051;40.294;-3.754;2023-04-03T10:32:21;94366.31;;;17.32;27.82
19783;BME280;10051;40.294;-3.754;2023-04-03T10:35:00;94334.41;;;17.41;28.28
19783;BME280;10051;40.294;-3.754;2023-04-03T10:37:34;94341.66;;;17.70;27.91
19783;BME280;10051;40.294;-3.754;2023-04-03T10:40:21;94341.78;;;17.74;28.00
19783;BME280;10051;40.294;-3.754;2023-04-03T10:42:56;94315.63;;;17.84;28.64
19783;BME280;10051;40.294;-3.754;2023-04-03T10:45:26;94337.41;;;18.17;28.66
19783;BME280;10051;40.294;-3.754;2023-04-03T10:50:26;94325.38;;;18.10;27.42
19783;BME280;10051;40.294;-3.754;2023-04-03T10:58:29;94306.88;;;18.35;28.06
19783;BME280;10051;40.294;-3.754;2023-04-03T11:01:19;94294.25;;;18.32;27.83
19783;BME280;10051;40.294;-3.754;2023-04-03T11:03:50;94269.31;;;18.16;27.46
19783;BME280;10051;40.294;-3.754;2023-04-03T11:06:19;94296.50;;;18.42;27.96
19783;BME280;10051;40.294;-3.754;2023-04-03T11:08:53;94288.47;;;18.51;26.98
19783;BME280;10051;40.294;-3.754;2023-04-03T11:11:27;94286.91;;;18.29;26.83
19783;BME280;10051;40.294;-3.754;2023-04-03T11:16:28;94279.63;;;18.17;26.59
19783;BME280;10051;40.294;-3.754;2023-04-03T11:19:01;94246.72;;;18.22;26.34
19783;BME280;10051;40.294;-3.754;2023-04-03T11:21:54;94273.06;;;18.57;26.76
19783;BME280;10051;40.294;-3.754;2023-04-03T11:24:25;94262.13;;;18.71;26.95
19783;BME280;10051;40.294;-3.754;2023-04-03T11:26:54;94255.59;;;18.68;26.63
19783;BME280;10051;40.294;-3.754;2023-04-03T11:29:26;94241.50;;;18.47;26.21
19783;BME280;10051;40.294;-3.754;2023-04-03T11:32:10;94260.25;;;18.71;26.30
19783;BME280;10051;40.294;-3.754;2023-04-03T11:34:53;94247.50;;;18.77;25.42
19783;BME280;10051;40.294;-3.754;2023-04-03T11:39:57;94236.91;;;18.56;24.82
19783;BME280;10051;40.294;-3.754;2023-04-03T11:42:36;94199.00;;;18.38;25.35
19783;BME280;10051;40.294;-3.754;2023-04-03T11:45:52;94210.63;;;18.33;25.92
19783;BME280;10051;40.294;-3.754;2023-04-03T11:53:39;94188.38;;;18.84;26.29
19783;BME280;10051;40.294;-3.754;2023-04-03T12:01:52;94199.22;;;19.62;24.78
19783;BME280;10051;40.294;-3.754;2023-04-03T12:04:21;94169.13;;;19.61;24.11
19783;BME280;10051;40.294;-3.754;2023-04-03T12:12:01;94183.50;;;19.98;
19783;BME280;10051;40.294;-3.754;2023-04-03T12:14:45;94166.31;;;19.70;21.29
19783;BME280;10051;40.294;-3.754;2023-04-03T12:17:22;94159.34;;;19.28;22.74
19783;BME280;10051;40.294;-3.754;2023-04-03T12:19:49;94168.22;;;19.08;22.28
19783;BME280;10051;40.294;-3.754;2023-04-03T12:22:17;94149.06;;;18.68;22.09
19783;BME280;10051;40.294;-3.754;2023-04-03T12:24:47;94158.84;;;18.89;21.49
19783;BME280;10051;40.294;-3.754;2023-04-03T12:38:26;94148.47;;;20.56;21.17
19783;BME280;10051;40.294;-3.754;2023-04-03T12:47:23;94130.16;;;21.19;20.44
19783;BME280;10051;40.294;-3.754;2023-04-03T12:49:52;94117.53;;;21.35;20.12
19783;BME280;10051;40.294;-3.754;2023-04-03T12:52:38;94117.06;;;21.49;18.52
19783;BME280;10051;40.294;-3.754;2023-04-03T12:55:15;94114.91;;;21.55;18.50
19783;BME280;10051;40.294;-3.754;2023-04-03T12:57:41;94099.00;;;21.27;17.58
19783;BME280;10051;40.294;-3.754;2023-04-03T13:02:51;94103.03;;;20.40;18.03
19783;BME280;10051;40.294;-3.754;2023-04-03T13:05:18;94106.50;;;20.57;18.23
19783;BME280;10051;40.294;-3.754;2023-04-03T13:07:49;94099.53;;;20.52;18.16
19783;BME280;10051;40.294;-3.754;2023-04-03T13:10:16;94068.59;;;20.67;17.48
19783;BME280;10051;40.294;-3.754;2023-04-03T13:12:48;94088.97;;;20.88;18.50
19783;BME280;10051;40.294;-3.754;2023-04-03T13:15:28;94083.78;;;21.11;18.48
19783;BME280;10051;40.294;-3.754;2023-04-03T13:17:55;94084.81;;;21.42;18.28
19783;BME280;10051;40.294;-3.754;2023-04-03T13:23:05;94025.81;;;21.15;16.73
19783;BME280;10051;40.294;-3.754;2023-04-03T13:25:40;94065.19;;;20.83;16.94
19783;BME280;10051;40.294;-3.754;2023-04-03T13:28:09;94061.00;;;20.69;16.43
19783;BME280;10051;40.294;-3.754;2023-04-03T13:30:38;94061.56;;;20.91;16.94
19783;BME280;10051;40.294;-3.754;2023-04-03T13:33:06;94046.09;;;21.16;16.72
19783;BME280;10051;40.294;-3.754;2023-04-03T13:35:43;94022.44;;;21.18;16.53
19783;BME280;10051;40.294;-3.754;2023-04-03T13:38:35;94040.41;;;21.37;15.37
19783;BME280;10051;40.294;-3.754;2023-04-03T13:41:05;94028.03;;;21.29;15.24
19783;BME280;10051;40.294;-3.754;2023-04-03T13:43:49;94031.13;;;21.31;15.19
19783;BME280;10051;40.294;-3.754;2023-04-03T13:48:43;94027.38;;;21.36;14.56
19783;BME280;10051;40.294;-3.754;2023-04-03T14:04:21;94012.50;;;21.94;16.67
19783;BME280;10051;40.294;-3.754;2023-04-03T14:06:47;94008.22;;;22.12;16.43
19783;BME280;10051;40.294;-3.754;2023-04-03T14:09:14;94010.81;;;22.28;16.34
19783;BME280;10051;40.294;-3.754;2023-04-03T14:11:40;94002.56;;;22.41;16.08
19783;BME280;10051;40.294;-3.754;2023-04-03T14:14:14;94000.31;;;22.43;15.54
19783;BME280;10051;40.294;-3.754;2023-04-03T14:16:42;93988.72;;;22.35;15.75
19783;BME280;10051;40.294;-3.754;2023-04-03T14:19:30;93993.41;;;22.42;15.45
19783;BME280;10051;40.294;-3.754;2023-04-03T14:21:58;93947.97;;;22.22;15.76
19783;BME280;10051;40.294;-3.754;2023-04-03T14:24:24;93962.81;;;22.20;15.57
19783;BME280;10051;40.294;-3.754;2023-04-03T14:26:53;93969.66;;;21.94;14.23
19783;BME280;10051;40.294;-3.754;2023-04-03T14:29:19;93970.00;;;21.92;14.65
19783;BME280;10051;40.294;-3.754;2023-04-03T14:31:46;93972.34;;;21.94;14.91
19783;BME280;10051;40.294;-3.754;2023-04-03T14:34:13;93948.34;;;21.58;13.87
19783;BME280;10051;40.294;-3.754;2023-04-03T14:36:40;93959.22;;;21.65;14.21
19783;BME280;10051;40.294;-3.754;2023-04-03T14:39:08;93955.66;;;21.61;13.86